Time;durP1;ratioP1;P1;durP2;ratioP2;P2;SDS_P1;SDS_P2;PMS_P1;PMS_P2;Temp;Humidity;BMP_temperature;BMP_pressure;BME280_temperature;BME280_humidity;BME280_pressure;Samples;Min_cycle;Max_cycle;Signal;HPM_P1;HPM_P2
2021/06/25 00:00:16;;;;;;;10.40;7.57;;;;;;;14.24;75.15;101478.38;4972188;28;20085;-68
2021/06/25 00:02:42;;;;;;;11.35;7.30;;;;;;;14.30;75.52;101480.38;4971059;28;20039;-69
2021/06/25 00:05:08;;;;;;;9.10;7.03;;;;;;;14.30;75.04;101483.06;4971987;28;20097;-68
2021/06/25 00:07:33;;;;;;;;;;;;;;;14.26;75.85;101481.75;4971842;28;20455;-69
2021/06/25 00:09:58;;;;;;;10.80;7.23;;;;;;;14.30;76.05;101476.88;4971874;28;19925;-69
2021/06/25 00:12:24;;;;;;;11.40;7.80;;;;;;;14.28;76.37;101478.88;4970776;28;20755;-68
2021/06/25 00:14:49;;;;;;;12.17;7.20;;;;;;;14.29;76.22;101475.19;4970852;28;20521;-68
2021/06/25 00:17:15;;;;;;;12.30;7.50;;;;;;;14.20;75.91;101473.53;4971527;28;20054;-69
2021/06/25 00:19:40;;;;;;;13.70;8.00;;;;;;;14.17;76.29;101472.00;4971730;28;20065;-68
2021/06/25 00:22:06;;;;;;;13.50;7.17;;;;;;;14.09;75.97;101459.44;4970624;28;20050;-68
2021/06/25 00:24:31;;;;;;;15.03;9.07;;;;;;;13.99;76.43;101458.75;4971610;28;20072;-69
2021/06/25 00:26:56;;;;;;;16.20;9.50;;;;;;;14.01;76.58;101459.44;4971421;28;20053;-68
2021/06/25 00:29:22;;;;;;;15.03;8.40;;;;;;;14.04;76.65;101451.03;4971519;28;20082;-69
2021/06/25 00:31:48;;;;;;;11.87;7.60;;;;;;;14.07;76.94;101449.84;4971575;28;20045;-69
2021/06/25 00:34:13;;;;;;;15.68;8.88;;;;;;;13.96;76.61;101445.66;4970551;28;20044;-68
2021/06/25 00:36:39;;;;;;;13.00;8.63;;;;;;;13.93;76.35;101444.16;4971078;28;20042;-69
2021/06/25 00:39:04;;;;;;;12.53;7.90;;;;;;;14.00;76.51;101441.66;4971353;28;20312;-68
2021/06/25 00:41:30;;;;;;;15.70;8.32;;;;;;;13.95;77.46;101441.28;4971295;28;20488;-69
2021/06/25 00:43:55;;;;;;;15.60;8.17;;;;;;;13.93;76.98;101441.47;4971361;28;20456;-68
2021/06/25 00:46:21;;;;;;;20.83;8.93;;;;;;;13.97;77.66;101446.50;4954023;28;20763;-69
2021/06/25 00:48:46;;;;;;;15.43;9.07;;;;;;;13.99;77.72;101452.53;4971351;28;20368;-68
2021/06/25 00:51:12;;;;;;;12.37;8.50;;;;;;;13.98;78.01;101461.59;4971129;28;20054;-69
2021/06/25 00:53:40;;;;;;;14.20;8.73;;;;;;;14.05;77.48;101458.09;4969989;28;20038;-68
2021/06/25 00:56:06;;;;;;;11.73;8.55;;;;;;;14.09;77.88;101448.69;4969951;28;20110;-68
2021/06/25 00:58:31;;;;;;;22.50;9.43;;;;;;;13.89;77.97;101440.13;4970971;28;20043;-69
2021/06/25 01:00:56;;;;;;;14.83;9.23;;;;;;;13.86;78.46;101442.28;4970160;28;20051;-68
2021/06/25 01:03:22;;;;;;;16.37;8.47;;;;;;;13.94;77.75;101434.25;4970144;28;20049;-68
2021/06/25 01:05:47;;;;;;;14.40;9.47;;;;;;;13.92;78.11;101434.41;4970855;28;20073;-68
2021/06/25 01:08:12;;;;;;;13.93;8.30;;;;;;;13.90;79.00;101440.97;4969664;28;20042;-68
2021/06/25 01:10:40;;;;;;;25.07;10.20;;;;;;;13.81;79.19;101450.84;4970829;28;20035;-69
2021/06/25 01:13:07;;;;;;;14.10;9.27;;;;;;;13.86;79.43;101442.28;4969841;28;20042;-68
2021/06/25 01:15:33;;;;;;;13.57;9.43;;;;;;;13.85;78.66;101452.19;4969887;28;20027;-68
2021/06/25 01:17:58;;;;;;;17.37;10.80;;;;;;;13.89;79.30;101452.72;4970639;28;20376;-68
2021/06/25 01:20:26;;;;;;;19.40;12.17;;;;;;;13.77;79.50;101448.69;4969749;28;20046;-68
2021/06/25 01:22:52;;;;;;;15.50;10.30;;;;;;;13.78;79.67;101453.88;4970726;28;20241;-68
2021/06/25 01:25:26;;;;;;;21.67;11.07;;;;;;;13.76;79.03;101453.19;4970651;28;20035;-68
2021/06/25 01:27:54;;;;;;;19.58;11.35;;;;;;;13.80;79.16;101453.72;4970437;28;20045;-68
2021/06/25 01:30:23;;;;;;;21.10;12.02;;;;;;;13.76;80.18;101455.88;4970525;28;20046;-68
2021/06/25 01:32:49;;;;;;;17.90;10.60;;;;;;;13.73;79.98;101450.84;4969482;28;20523;-68
2021/06/25 01:35:15;;;;;;;17.67;11.60;;;;;;;13.56;80.48;101457.22;4970441;28;20487;-68
2021/06/25 01:37:42;;;;;;;17.33;11.02;;;;;;;13.54;80.68;101446.63;4969269;28;20042;-68
2021/06/25 01:40:10;;;;;;;20.80;11.85;;;;;;;13.62;80.41;101461.91;4969498;28;20030;-68
2021/06/25 01:42:37;;;;;;;31.65;12.70;;;;;;;13.64;80.54;101454.53;4970407;28;20172;-68
2021/06/25 01:45:18;;;;;;;19.52;11.15;;;;;;;13.66;81.15;101453.34;4970395;28;20042;-68
2021/06/25 01:47:45;;;;;;;17.80;11.95;;;;;;;13.72;80.65;101455.38;4969211;28;20031;-68
2021/06/25 01:50:16;;;;;;;20.70;11.02;;;;;;;13.65;81.03;101450.81;4970371;28;20401;-68
2021/06/25 01:52:43;;;;;;;19.75;11.50;;;;;;;13.69;80.78;101452.19;4969277;28;20046;-68
2021/06/25 01:55:09;;;;;;;27.48;12.40;;;;;;;13.57;81.85;101448.16;4969449;28;20042;-68
2021/06/25 01:57:35;;;;;;;19.98;12.80;;;;;;;13.59;81.55;101451.50;4969844;28;20038;-68
2021/06/25 02:00:00;;;;;;;21.57;11.80;;;;;;;13.58;82.00;101457.84;4970104;28;20103;-68
2021/06/25 02:02:26;;;;;;;20.57;12.17;;;;;;;13.60;81.66;101454.03;4970046;28;20030;-68
2021/06/25 02:04:51;;;;;;;17.03;11.47;;;;;;;13.56;81.83;101471.47;4970152;28;20092;-68
2021/06/25 02:07:17;;;;;;;21.23;12.63;;;;;;;13.49;82.05;101468.59;4968678;28;20049;-68
2021/06/25 02:09:42;;;;;;;20.88;12.75;;;;;;;13.55;82.10;101474.28;4970120;28;20046;-68
2021/06/25 02:12:08;;;;;;;18.80;12.13;;;;;;;13.62;82.28;101469.94;4969911;28;20049;-68
2021/06/25 02:14:33;;;;;;;16.77;11.60;;;;;;;13.66;81.89;101468.63;4969835;28;20447;-68
2021/06/25 02:16:58;;;;;;;19.10;13.37;;;;;;;13.60;81.76;101466.59;4968747;28;20050;-68
2021/06/25 02:19:24;;;;;;;19.53;12.23;;;;;;;13.62;81.98;101478.00;4969655;28;20109;-68
2021/06/25 02:21:50;;;;;;;21.35;12.48;;;;;;;13.48;82.50;101476.78;4952792;28;20042;-68
2021/06/25 02:24:15;;;;;;;20.90;13.60;;;;;;;13.59;82.17;101472.97;4969932;28;20042;-68
2021/06/25 02:26:41;;;;;;;23.77;13.90;;;;;;;13.52;82.11;101473.63;4968583;28;20101;-68
2021/06/25 02:29:06;;;;;;;23.35;13.20;;;;;;;13.57;81.28;101467.75;4968892;28;20049;-68
2021/06/25 02:31:32;;;;;;;21.57;14.17;;;;;;;13.50;82.01;101467.56;4968876;28;20047;-68
2021/06/25 02:33:57;;;;;;;18.93;12.53;;;;;;;13.51;82.54;101461.22;4969683;28;20041;-68
2021/06/25 02:36:22;;;;;;;22.23;13.03;;;;;;;13.46;82.34;101452.81;4968359;28;20357;-68
2021/06/25 02:38:48;;;;;;;20.80;11.87;;;;;;;13.50;81.89;101459.53;4969655;28;20372;-68
2021/06/25 02:41:13;;;;;;;21.43;13.67;;;;;;;13.43;82.12;101458.50;4969559;28;20092;-68
2021/06/25 02:43:38;;;;;;;20.33;12.47;;;;;;;13.47;81.79;101459.03;4968444;28;20108;-68
2021/06/25 02:46:04;;;;;;;24.40;13.93;;;;;;;13.39;82.38;101462.53;4968364;28;20105;-68
2021/06/25 02:48:29;;;;;;;21.00;15.40;;;;;;;13.37;82.71;101472.59;4969447;28;20050;-68
2021/06/25 02:50:54;;;;;;;23.33;14.23;;;;;;;13.43;82.83;101468.41;4968444;28;20047;-68
2021/06/25 02:53:20;;;;;;;22.97;13.73;;;;;;;13.50;82.12;101456.00;4968449;28;20042;-68
2021/06/25 02:55:51;;;;;;;22.13;14.07;;;;;;;13.37;83.19;101453.81;4968627;28;20157;-68
2021/06/25 02:58:24;;;;;;;26.02;15.13;;;;;;;13.40;82.77;101450.78;4969175;28;20077;-68
2021/06/25 03:00:50;;;;;;;24.48;14.32;;;;;;;13.20;83.25;101450.19;4969368;28;20065;-69
2021/06/25 03:03:16;;;;;;;28.60;14.82;;;;;;;13.20;82.63;101446.66;4968327;28;20035;-68
2021/06/25 03:05:42;;;;;;;24.90;15.50;;;;;;;13.19;82.42;101448.53;4969229;28;20039;-68
2021/06/25 03:08:07;;;;;;;24.33;14.70;;;;;;;13.18;82.55;101437.94;4968004;28;20038;-68
2021/06/25 03:10:33;;;;;;;26.87;15.07;;;;;;;13.23;82.64;101430.28;4968322;28;20054;-68
2021/06/25 03:12:58;;;;;;;23.27;16.47;;;;;;;13.16;82.75;101434.59;4969009;28;20031;-68
2021/06/25 03:15:24;;;;;;;21.60;14.53;;;;;;;13.15;83.39;101432.91;4969151;28;20027;-68
2021/06/25 03:17:49;;;;;;;24.43;15.87;;;;;;;13.16;83.01;101418.50;4967918;28;20505;-68
2021/06/25 03:20:15;;;;;;;21.33;15.43;;;;;;;13.16;83.18;101419.34;4969072;28;20037;-68
2021/06/25 03:22:40;;;;;;;23.08;14.40;;;;;;;13.21;83.17;101421.56;4969090;28;20031;-68
2021/06/25 03:25:06;;;;;;;25.43;16.10;;;;;;;13.15;82.76;101416.84;4968025;28;20128;-68
2021/06/25 03:27:32;;;;;;;22.95;14.32;;;;;;;13.14;83.11;101420.53;4951708;28;20031;-68
2021/06/25 03:29:57;;;;;;;25.13;14.88;;;;;;;13.17;83.20;101423.72;4967995;28;20049;-68
2021/06/25 03:32:23;;;;;;;26.90;16.07;;;;;;;13.21;82.99;101426.91;4971353;28;20054;-68
2021/06/25 03:34:48;;;;;;;24.83;15.00;;;;;;;13.28;83.76;101428.81;4972448;28;20118;-68
2021/06/25 03:37:14;;;;;;;18.10;11.23;;;;;;;13.36;83.70;101425.28;4971963;28;20039;-68
2021/06/25 03:39:40;;;;;;;22.27;14.80;;;;;;;13.45;83.45;101429.69;4971297;28;20472;-68
2021/06/25 03:42:06;;;;;;;26.00;15.80;;;;;;;13.38;82.22;101423.28;4971991;28;20294;-69
2021/06/25 03:44:31;;;;;;;29.17;16.65;;;;;;;13.33;82.90;101425.63;4972058;28;20304;-68
2021/06/25 03:46:56;;;;;;;26.77;16.00;;;;;;;13.23;83.13;101435.63;4970951;28;20049;-68
2021/06/25 03:49:22;;;;;;;28.37;16.53;;;;;;;13.37;82.38;101437.72;4971124;28;20472;-68
2021/06/25 03:51:47;;;;;;;27.47;15.90;;;;;;;13.39;82.68;101435.72;4972034;28;20494;-68
2021/06/25 03:54:12;;;;;;;22.37;15.97;;;;;;;13.44;82.54;101433.38;4971198;28;20430;-68
2021/06/25 03:56:38;;;;;;;25.67;15.70;;;;;;;13.39;83.52;101434.84;4971677;28;20081;-68
2021/06/25 03:59:03;;;;;;;26.93;16.17;;;;;;;13.44;83.43;101438.75;4972102;28;20334;-68
2021/06/25 04:01:28;;;;;;;23.43;16.30;;;;;;;13.49;83.02;101430.19;4971988;28;20031;-68
2021/06/25 04:03:54;;;;;;;20.37;14.40;;;;;;;13.58;82.89;101425.66;4972124;28;20054;-68
2021/06/25 04:06:19;;;;;;;25.63;15.70;;;;;;;13.44;82.46;101427.19;4970701;28;20670;-68
2021/06/25 04:08:49;;;;;;;23.93;16.00;;;;;;;13.39;82.99;101421.44;4971158;28;20050;-68
2021/06/25 04:11:14;;;;;;;24.60;15.95;;;;;;;13.49;82.86;101425.66;4970956;28;20066;-68
2021/06/25 04:13:40;;;;;;;29.33;17.33;;;;;;;13.48;82.36;101428.50;4970869;28;20143;-68
2021/06/25 04:16:05;;;;;;;22.07;14.13;;;;;;;13.59;82.20;101427.34;4971604;28;20031;-68
2021/06/25 04:18:31;;;;;;;19.10;13.33;;;;;;;13.73;81.75;101415.97;4970961;28;20476;-68
2021/06/25 04:20:59;;;;;;;27.83;14.73;;;;;;;13.65;81.62;101418.63;4970776;28;20042;-68
2021/06/25 04:23:25;;;;;;;22.08;13.65;;;;;;;13.65;81.16;101415.94;4971726;28;20035;-68
2021/06/25 04:25:50;;;;;;;25.65;15.85;;;;;;;13.58;80.84;101423.84;4970433;28;20049;-68
2021/06/25 04:28:16;;;;;;;23.33;14.73;;;;;;;13.60;81.25;101429.03;4971563;28;20039;-68
2021/06/25 04:30:43;;;;;;;30.10;15.75;;;;;;;13.44;81.07;101425.31;4971560;28;20043;-68
2021/06/25 04:33:11;;;;;;;25.73;15.77;;;;;;;13.45;81.22;101423.47;4970659;28;20058;-68
2021/06/25 04:35:36;;;;;;;23.02;13.75;;;;;;;13.61;80.29;101428.88;4970558;28;20129;-68
2021/06/25 04:38:03;;;;;;;22.67;14.07;;;;;;;13.60;80.85;101434.38;4971293;28;20149;-68
2021/06/25 04:40:30;;;;;;;23.92;15.13;;;;;;;13.56;79.99;101414.28;4970507;28;20045;-68
2021/06/25 04:42:55;;;;;;;25.30;14.20;;;;;;;13.70;80.28;101419.81;4971136;28;20095;-68
2021/06/25 04:45:21;;;;;;;23.40;14.30;;;;;;;13.79;80.53;101409.06;4971463;28;20034;-68
2021/06/25 04:47:46;;;;;;;33.83;15.37;;;;;;;13.71;80.19;101407.25;4970098;28;20549;-68
2021/06/25 04:50:12;;;;;;;25.23;14.90;;;;;;;14.05;79.53;101403.56;4971315;28;20042;-68
2021/06/25 04:52:38;;;;;;;26.30;14.82;;;;;;;14.14;79.14;101411.44;4970298;28;20062;-68
2021/06/25 04:55:07;;;;;;;21.92;14.25;;;;;;;14.27;78.62;101400.16;4971231;28;20049;-69
2021/06/25 04:57:32;;;;;;;24.95;15.38;;;;;;;14.21;78.30;101398.16;4970893;28;20124;-68
2021/06/25 04:59:57;;;;;;;25.83;15.10;;;;;;;13.97;79.01;101407.06;4970224;28;20472;-68
2021/06/25 05:02:23;;;;;;;24.97;14.90;;;;;;;14.15;78.57;101398.84;4971230;28;20617;-68
2021/06/25 05:04:48;;;;;;;27.33;14.40;;;;;;;14.28;78.46;101404.53;4970277;28;20415;-68
2021/06/25 05:07:13;;;;;;;19.40;13.77;;;;;;;14.54;77.56;101403.50;4970827;28;20360;-69
2021/06/25 05:09:39;;;;;;;26.23;15.47;;;;;;;14.60;76.81;101408.16;4971045;28;20030;-69
2021/06/25 05:12:04;;;;;;;17.00;11.70;;;;;;;14.70;75.51;101405.28;4970902;28;20084;-69
2021/06/25 05:14:30;;;;;;;22.25;13.38;;;;;;;14.69;75.53;101403.59;4953947;28;20042;-68
2021/06/25 05:16:55;;;;;;;24.57;12.83;;;;;;;14.70;75.95;101413.34;4970670;28;20092;-69
2021/06/25 05:19:20;;;;;;;21.97;12.93;;;;;;;14.92;74.21;101417.97;4970883;28;20347;-68
2021/06/25 05:21:46;;;;;;;18.70;12.23;;;;;;;15.02;73.98;101419.59;4969994;28;20726;-69
2021/06/25 05:24:11;;;;;;;18.47;13.03;;;;;;;15.11;72.72;101422.06;4969786;28;20513;-68
2021/06/25 05:26:36;;;;;;;22.03;12.90;;;;;;;15.08;72.69;101419.75;4969573;28;20042;-69
2021/06/25 05:29:03;;;;;;;18.43;12.40;;;;;;;15.12;72.07;101412.16;4970693;28;20038;-69
2021/06/25 05:31:28;;;;;;;22.15;13.52;;;;;;;15.07;73.80;101415.34;4953500;28;20062;-69
2021/06/25 05:33:54;;;;;;;21.35;13.88;;;;;;;15.02;73.92;101416.91;4969657;28;20074;-69
2021/06/25 05:36:19;;;;;;;24.30;14.57;;;;;;;15.37;72.85;101416.38;4970351;28;20030;-68
2021/06/25 05:38:45;;;;;;;17.40;12.20;;;;;;;15.97;71.15;101417.47;4969420;28;20608;-69
2021/06/25 05:41:10;;;;;;;19.63;12.80;;;;;;;16.49;70.16;101421.19;4969547;28;20045;-69
2021/06/25 05:43:36;;;;;;;19.97;13.53;;;;;;;16.84;67.25;101416.94;4970544;28;20103;-69
2021/06/25 05:46:01;;;;;;;15.73;11.13;;;;;;;17.58;66.84;101415.06;4970267;28;20055;-69
2021/06/25 05:48:27;;;;;;;17.03;10.93;;;;;;;18.03;63.56;101415.75;4970449;28;20035;-69
2021/06/25 05:50:52;;;;;;;17.48;12.15;;;;;;;18.20;63.07;101413.56;4970477;28;20051;-68
2021/06/25 05:53:18;;;;;;;17.20;10.37;;;;;;;19.16;58.35;101408.28;4970001;28;20078;-69
2021/06/25 05:55:43;;;;;;;13.43;10.47;;;;;;;19.35;57.50;101402.09;4969855;28;20673;-69
2021/06/25 05:58:09;;;;;;;17.03;10.87;;;;;;;19.32;58.53;101404.41;4969082;28;20692;-69
2021/06/25 06:00:34;;;;;;;14.05;9.27;;;;;;;20.44;55.78;101410.91;4970261;28;20038;-69
2021/06/25 06:03:00;;;;;;;11.73;8.63;;;;;;;19.70;57.12;101412.81;4969254;28;20371;-69
2021/06/25 06:05:25;;;;;;;16.77;10.00;;;;;;;19.85;56.08;101411.78;4969357;28;20047;-69
2021/06/25 06:07:51;;;;;;;14.33;10.60;;;;;;;18.65;58.00;101416.78;4969801;28;20571;-69
2021/06/25 06:10:17;;;;;;;14.90;10.77;;;;;;;18.06;61.73;101413.47;4969229;28;20038;-69
2021/06/25 06:12:43;;;;;;;16.42;10.40;;;;;;;18.48;60.83;101406.28;4970101;28;20062;-69
2021/06/25 06:15:09;;;;;;;13.45;10.20;;;;;;;18.35;61.03;101425.09;4969119;28;20046;-69
2021/06/25 06:17:40;;;;;;;13.98;9.70;;;;;;;19.29;57.66;101419.19;4969794;28;20087;-69
2021/06/25 06:20:06;;;;;;;15.73;9.63;;;;;;;19.10;57.70;101417.22;4970017;28;20043;-69
2021/06/25 06:33:36;;;;;;;12.90;9.13;;;;;;;20.38;52.53;101436.16;4969865;28;20042;-69
2021/06/25 06:36:06;;;;;;;15.98;9.43;;;;;;;20.07;56.03;101428.69;4969468;28;20141;-69
2021/06/25 06:38:31;;;;;;;13.00;9.05;;;;;;;20.52;53.48;101439.69;4969781;28;20035;-69
2021/06/25 06:40:57;;;;;;;13.37;9.50;;;;;;;19.21;56.16;101446.41;4968774;28;20372;-69
2021/06/25 06:43:22;;;;;;;14.43;9.70;;;;;;;18.16;58.45;101442.03;4969651;28;20293;-69
2021/06/25 06:45:47;;;;;;;16.70;10.63;;;;;;;18.77;58.56;101440.38;4968686;28;20039;-69
2021/06/25 06:48:12;;;;;;;15.30;9.37;;;;;;;19.17;57.62;101439.72;4968615;28;20031;-69
2021/06/25 06:50:38;;;;;;;15.33;8.87;;;;;;;19.73;55.36;101430.53;4969692;28;20057;-69
2021/06/25 06:53:03;;;;;;;16.97;11.23;;;;;;;20.27;54.26;101432.19;4969558;28;20363;-69
2021/06/25 06:55:29;;;;;;;11.00;8.38;;;;;;;20.95;52.99;101429.16;4968788;28;20482;-69
2021/06/25 06:57:55;;;;;;;13.03;9.10;;;;;;;20.56;52.78;101433.66;4969244;28;20458;-67
2021/06/25 07:00:20;;;;;;;15.65;8.65;;;;;;;21.12;51.09;101437.66;4952501;28;20340;-67
2021/06/25 07:02:46;;;;;;;15.45;10.35;;;;;;;20.31;54.61;101438.06;4969442;28;20027;-67
2021/06/25 07:05:13;;;;;;;11.65;9.02;;;;;;;21.28;50.76;101436.31;4969363;28;20034;-67
2021/06/25 07:07:39;;;;;;;11.07;8.23;;;;;;;20.49;52.03;101432.00;4971901;28;20039;-67
2021/06/25 07:10:06;;;;;;;14.18;8.63;;;;;;;20.37;51.40;101437.19;4972770;28;20035;-67
2021/06/25 07:12:32;;;;;;;12.15;8.60;;;;;;;20.52;52.23;101432.38;4972598;28;20132;-67
2021/06/25 07:14:57;;;;;;;13.98;8.23;;;;;;;20.56;52.06;101430.94;4972092;28;20070;-67
2021/06/25 07:17:22;;;;;;;13.60;9.23;;;;;;;19.86;53.40;101430.56;4972492;28;20039;-67
2021/06/25 07:19:49;;;;;;;11.97;8.70;;;;;;;19.46;55.06;101443.16;4972711;28;20053;-66
2021/06/25 07:22:14;;;;;;;;;;;;;;;20.18;53.26;101445.16;4973080;28;20117;-67
2021/06/25 07:24:40;;;;;;;13.30;7.65;;;;;;;21.01;49.81;101441.03;4972527;28;20079;-67
2021/06/25 07:27:05;;;;;;;15.17;8.70;;;;;;;21.05;49.11;101453.16;4972223;28;20088;-67
2021/06/25 07:29:31;;;;;;;13.38;10.60;;;;;;;20.29;51.96;101442.84;4972562;28;20368;-67
2021/06/25 07:31:57;;;;;;;13.82;8.93;;;;;;;20.45;51.24;101440.53;4972583;28;20832;-67
2021/06/25 07:34:22;;;;;;;9.80;7.65;;;;;;;20.36;52.70;101438.25;4955574;28;20100;-67
2021/06/25 07:36:47;;;;;;;14.60;9.03;;;;;;;19.71;52.82;101438.03;4972198;28;20026;-67
2021/06/25 07:39:13;;;;;;;10.13;8.80;;;;;;;20.85;51.16;101443.16;4955328;28;20049;-67
2021/06/25 07:41:38;;;;;;;14.17;8.53;;;;;;;21.47;49.12;101440.84;4972148;28;20526;-67
2021/06/25 07:44:04;;;;;;;9.85;7.32;;;;;;;21.25;49.16;101440.28;4955384;28;20114;-67
2021/06/25 07:46:30;;;;;;;11.15;7.07;;;;;;;19.54;53.28;101432.97;4971009;28;20104;-67
2021/06/25 07:48:55;;;;;;;13.30;6.97;;;;;;;20.63;52.24;101433.66;4955227;28;20065;-67
2021/06/25 07:51:21;;;;;;;9.70;7.70;;;;;;;20.57;49.74;101429.88;4972187;28;20042;-67
2021/06/25 07:53:46;;;;;;;16.70;8.63;;;;;;;20.78;49.09;101423.38;4972178;28;20045;-67
2021/06/25 07:56:13;;;;;;;10.80;7.23;;;;;;;20.28;52.22;101433.88;4970908;28;20042;-67
2021/06/25 07:58:39;;;;;;;12.05;7.95;;;;;;;20.31;53.07;101428.03;4955085;28;20031;-67
2021/06/25 08:01:04;;;;;;;10.70;7.50;;;;;;;20.15;52.48;101432.00;4972122;28;20035;-67
2021/06/25 08:03:29;;;;;;;13.93;8.50;;;;;;;19.57;53.04;101429.00;4972044;28;20054;-67
2021/06/25 08:05:55;;;;;;;13.83;7.63;;;;;;;19.30;53.12;101437.06;4971482;28;20053;-67
2021/06/25 08:08:20;;;;;;;9.87;8.40;;;;;;;19.87;54.67;101437.63;4972035;28;20062;-67
2021/06/25 08:10:46;;;;;;;12.27;6.00;;;;;;;20.64;51.02;101433.41;4971931;28;20294;-67
2021/06/25 08:13:11;;;;;;;10.52;6.30;;;;;;;20.75;50.52;101428.41;4970926;28;20069;-67
2021/06/25 08:15:36;;;;;;;7.73;5.40;;;;;;;21.41;49.16;101433.56;4970945;28;20042;-67
2021/06/25 08:18:02;;;;;;;6.87;5.27;;;;;;;20.72;50.70;101426.94;4954025;28;20061;-67
2021/06/25 08:20:28;;;;;;;9.43;6.13;;;;;;;21.07;48.16;101427.44;4970885;28;20030;-67
2021/06/25 08:22:53;;;;;;;8.07;5.60;;;;;;;20.68;48.16;101427.59;4970820;28;20281;-67
2021/06/25 08:25:18;;;;;;;16.00;7.07;;;;;;;20.76;50.29;101422.75;4954752;28;20042;-67
2021/06/25 08:27:44;;;;;;;8.40;6.67;;;;;;;21.46;48.66;101430.19;4970368;28;20096;-67
2021/06/25 08:30:10;;;;;;;7.07;5.13;;;;;;;22.00;46.70;101425.22;4954723;28;20092;-67
2021/06/25 08:32:36;;;;;;;6.55;5.13;;;;;;;21.35;47.49;101428.97;4970706;28;20076;-67
2021/06/25 08:35:03;;;;;;;5.93;4.47;;;;;;;20.71;48.31;101424.44;4970727;28;20138;-67
2021/06/25 08:37:28;;;;;;;7.18;4.60;;;;;;;21.54;47.93;101424.50;4970352;28;20035;-69
2021/06/25 08:39:53;;;;;;;7.53;3.57;;;;;;;22.22;45.95;101421.09;4970718;28;20042;-67
2021/06/25 08:42:19;;;;;;;5.97;3.53;;;;;;;22.66;43.08;101431.91;4970363;28;20488;-67
2021/06/25 08:44:44;;;;;;;9.07;6.00;;;;;;;21.30;45.80;101423.34;4971422;28;20372;-67
2021/06/25 08:47:10;;;;;;;8.33;4.97;;;;;;;21.44;47.25;101429.56;4968691;28;20150;-67
2021/06/25 08:49:37;;;;;;;12.07;4.80;;;;;;;21.00;45.20;101426.66;4952758;28;20046;-67
2021/06/25 08:52:04;;;;;;;6.32;4.90;;;;;;;20.54;46.81;101424.03;4968554;28;20034;-67
2021/06/25 08:54:29;;;;;;;7.95;4.95;;;;;;;21.01;45.71;101428.28;4968626;28;20070;-67
2021/06/25 08:56:56;;;;;;;6.30;4.75;;;;;;;21.79;44.65;101429.97;4969283;28;20077;-67
2021/06/25 08:59:22;;;;;;;7.97;4.97;;;;;;;21.69;43.79;101429.63;4968780;28;20076;-67
2021/06/25 09:01:51;;;;;;;7.57;5.17;;;;;;;20.79;45.79;101429.63;4970673;28;20035;-67
2021/06/25 09:04:36;;;;;;;10.70;6.22;;;;;;;20.47;49.57;101436.78;4970297;28;20142;-67
2021/06/25 09:07:04;;;;;;;5.40;4.88;;;;;;;21.25;47.06;101434.03;4969667;28;20122;-67
2021/06/25 09:09:41;;;;;;;5.90;5.18;;;;;;;21.89;45.99;101427.59;4970196;28;20039;-67
2021/06/25 09:12:11;;;;;;;7.47;4.85;;;;;;;21.17;45.26;101432.41;4970016;28;20077;-67
2021/06/25 09:15:00;;;;;;;5.80;4.70;;;;;;;21.64;45.34;101438.44;4970036;28;20556;-67
2021/06/25 09:17:27;;;;;;;5.10;4.32;;;;;;;21.55;44.83;101438.94;4970508;28;20045;-67
2021/06/25 09:19:53;;;;;;;5.63;4.10;;;;;;;21.20;44.78;101439.28;4969893;28;20042;-67
2021/06/25 09:22:19;;;;;;;;;;;;;;;21.18;48.06;101444.09;4970326;28;20042;-67
2021/06/25 09:24:57;;;;;;;;;;;;;;;21.42;46.15;101445.25;4970398;28;20000;-67
2021/06/25 09:27:23;;;;;;;5.60;5.00;;;;;;;21.98;45.05;101444.44;4970436;28;20240;-67
2021/06/25 09:29:49;;;;;;;7.45;5.03;;;;;;;20.78;44.54;101441.53;4969761;28;20030;-67
2021/06/25 09:32:14;;;;;;;10.07;4.90;;;;;;;20.80;44.38;101442.16;4970560;28;20482;-67
2021/06/25 09:34:49;;;;;;;6.20;4.30;;;;;;;21.93;43.93;101445.13;4970694;28;20492;-67
2021/06/25 09:37:17;;;;;;;5.60;4.57;;;;;;;22.38;40.47;101446.84;4969469;28;20039;-67
2021/06/25 09:39:56;;;;;;;8.10;4.40;;;;;;;22.64;40.78;101445.78;4970578;28;20034;-67
2021/06/25 09:42:22;;;;;;;6.00;4.28;;;;;;;23.28;40.08;101443.56;4969475;28;20057;-67
2021/06/25 09:45:15;;;;;;;4.78;3.17;;;;;;;24.05;38.37;101447.50;4970435;28;20464;-67
2021/06/25 09:47:51;;;;;;;6.07;3.35;;;;;;;24.32;37.04;101447.84;4969322;28;20034;-68
2021/06/25 09:50:18;;;;;;;4.70;3.35;;;;;;;23.65;38.53;101448.06;4969568;28;20688;-68
2021/06/25 09:52:47;;;;;;;5.03;3.55;;;;;;;24.63;36.80;101439.34;4969384;28;20053;-68
2021/06/25 09:55:15;;;;;;;4.95;3.90;;;;;;;23.50;38.99;101441.16;4970253;28;20104;-68
2021/06/25 09:58:19;;;;;;;3.63;3.28;;;;;;;24.19;37.45;101443.47;4970032;28;20038;-68
2021/06/25 10:01:22;;;;;;;6.03;3.78;;;;;;;23.66;39.65;101434.22;4969371;28;20080;-68
2021/06/25 10:03:59;;;;;;;5.32;4.07;;;;;;;23.27;39.97;101441.06;4953226;28;20047;-68
2021/06/25 10:06:27;;;;;;;8.00;4.50;;;;;;;23.29;41.80;101444.38;4968985;28;20088;-68
2021/06/25 10:08:53;;;;;;;5.85;4.53;;;;;;;23.20;41.62;101448.50;4969176;28;20039;-68
2021/06/25 10:11:24;;;;;;;10.18;5.72;;;;;;;21.76;42.65;101456.75;4970134;28;20052;-68
2021/06/25 10:13:52;;;;;;;7.45;5.45;;;;;;;22.18;42.48;101452.47;4969001;28;20035;-68
2021/06/25 10:16:18;;;;;;;7.22;4.93;;;;;;;22.07;46.02;101448.56;4969821;28;20047;-68
2021/06/25 10:18:48;;;;;;;8.57;5.75;;;;;;;21.75;41.55;101455.06;4969183;28;20039;-68
2021/06/25 10:21:18;;;;;;;8.27;5.15;;;;;;;22.27;42.82;101443.00;4969032;28;20042;-68
2021/06/25 10:23:58;;;;;;;7.22;4.85;;;;;;;21.88;42.94;101453.09;4969976;28;20035;-68
2021/06/25 10:26:23;;;;;;;7.05;4.78;;;;;;;21.86;46.03;101446.22;4952459;28;20038;-68
2021/06/25 10:28:51;;;;;;;9.32;5.40;;;;;;;21.00;43.06;101434.78;4968971;28;20095;-68
2021/06/25 10:31:21;;;;;;;6.57;4.88;;;;;;;21.54;43.36;101448.09;4969847;28;20823;-68
2021/06/25 10:33:48;;;;;;;7.15;5.00;;;;;;;22.28;42.54;101444.66;4968880;28;20041;-68
2021/06/25 10:36:15;;;;;;;7.93;5.47;;;;;;;21.87;42.00;101440.59;4969416;28;20042;-68
2021/06/25 10:38:43;;;;;;;8.65;5.40;;;;;;;21.62;43.70;101445.97;4969727;28;20457;-67
2021/06/25 10:41:11;;;;;;;8.57;5.13;;;;;;;22.08;43.03;101435.81;4968405;28;20042;-68
2021/06/25 10:43:38;;;;;;;6.07;5.05;;;;;;;21.55;44.04;101436.22;4968836;28;20145;-68
2021/06/25 10:46:04;;;;;;;7.63;5.68;;;;;;;21.85;41.76;101430.97;4968498;28;20053;-68
2021/06/25 10:48:37;;;;;;;7.32;4.55;;;;;;;22.39;46.32;101428.66;4968720;28;20035;-67
2021/06/25 10:51:23;;;;;;;12.05;4.88;;;;;;;23.46;39.48;101434.53;4969610;28;20042;-68
2021/06/25 10:54:21;;;;;;;7.82;4.68;;;;;;;24.56;39.09;101435.03;4968646;28;20039;-68
2021/06/25 10:56:49;;;;;;;6.38;4.13;;;;;;;24.89;36.64;101437.16;4968368;28;20092;-68
2021/06/25 10:59:29;;;;;;;6.57;5.00;;;;;;;25.14;36.00;101433.25;4969575;28;20050;-68
2021/06/25 11:01:56;;;;;;;5.65;4.70;;;;;;;23.56;40.43;101437.50;4968246;28;20050;-68
2021/06/25 11:04:30;;;;;;;6.28;4.03;;;;;;;24.13;38.77;101436.22;4968572;28;20384;-68
2021/06/25 11:06:57;;;;;;;7.93;4.60;;;;;;;23.63;37.80;101442.03;4969059;28;20521;-68
2021/06/25 11:09:25;;;;;;;5.80;4.80;;;;;;;20.58;43.85;101437.00;4968500;28;20042;-68
2021/06/25 11:12:17;;;;;;;9.90;5.97;;;;;;;20.64;43.34;101438.84;4969336;28;20117;-68
2021/06/25 11:14:43;;;;;;;11.85;5.78;;;;;;;21.00;46.39;101437.50;4968363;28;20054;-67
2021/06/25 11:17:08;;;;;;;7.67;5.07;;;;;;;21.85;43.02;101442.69;4969130;28;20031;-68
2021/06/25 11:19:36;;;;;;;6.15;4.72;;;;;;;21.60;43.33;101444.53;4969360;28;20039;-67
2021/06/25 11:22:02;;;;;;;7.38;4.60;;;;;;;22.37;43.36;101434.31;4968260;28;20077;-67
2021/06/25 11:24:47;;;;;;;7.57;4.80;;;;;;;23.18;39.90;101443.28;4968174;28;20035;-68
2021/06/25 11:27:12;;;;;;;8.32;6.03;;;;;;;22.73;41.05;101436.25;4968020;28;20104;-68